Time;durP1;ratioP1;P1;durP2;ratioP2;P2;SDS_P1;SDS_P2;PMS_P1;PMS_P2;Temp;Humidity;BMP_temperature;BMP_pressure;BME280_temperature;BME280_humidity;BME280_pressure;Samples;Min_cycle;Max_cycle;Signal;HPM_P1;HPM_P2
2022/05/10 00:02:01;;;;;;;3.58;2.15;;;21.30;52.90;;;;;;4953093;29;20070;-78
2022/05/10 00:04:27;;;;;;;3.35;2.30;;;21.30;52.90;;;;;;4953835;29;20035;-77
2022/05/10 00:06:54;;;;;;;2.92;2.20;;;21.20;52.90;;;;;;4920150;29;20035;-76
2022/05/10 00:09:22;;;;;;;3.30;2.33;;;21.20;52.90;;;;;;4952817;29;20099;-77
2022/05/10 00:11:48;;;;;;;3.40;2.30;;;21.20;53.00;;;;;;4954086;28;20480;-77
2022/05/10 00:14:14;;;;;;;2.17;1.98;;;21.20;53.00;;;;;;4937559;29;20472;-76
2022/05/10 00:16:44;;;;;;;3.10;2.50;;;21.10;53.00;;;;;;4937107;29;20552;-81
2022/05/10 00:19:13;;;;;;;4.18;2.20;;;21.10;53.00;;;;;;4937107;29;20036;-77
2022/05/10 00:21:44;;;;;;;4.07;2.35;;;21.00;53.10;;;;;;4952597;29;20031;-81
2022/05/10 00:24:10;;;;;;;3.35;2.40;;;21.00;53.10;;;;;;4936997;29;20420;-77
2022/05/10 00:26:40;;;;;;;3.55;2.30;;;21.00;53.10;;;;;;4953737;29;20058;-75
2022/05/10 00:29:14;;;;;;;3.84;2.40;;;21.00;53.20;;;;;;4795372;29;5559804;-74
2022/05/10 00:31:42;;;;;;;4.10;2.17;;;20.90;53.20;;;;;;4922808;29;20110;-76
2022/05/10 00:34:09;;;;;;;3.25;2.08;;;20.90;53.20;;;;;;4937837;29;20023;-78
2022/05/10 00:36:35;;;;;;;3.42;2.15;;;20.80;53.20;;;;;;4937456;29;20039;-75
2022/05/10 00:39:01;;;;;;;3.88;2.30;;;20.80;53.20;;;;;;4953239;29;20027;-76
2022/05/10 00:41:36;;;;;;;3.60;2.15;;;20.80;53.30;;;;;;4937794;29;20062;-77
2022/05/10 00:44:34;;;;;;;3.47;2.33;;;20.70;53.30;;;;;;4937847;29;20031;-75
2022/05/10 00:47:09;;;;;;;3.55;2.30;;;20.70;53.30;;;;;;4944651;29;20055;-76
2022/05/10 00:50:13;;;;;;;2.85;2.30;;;20.70;53.40;;;;;;4937624;29;20031;-78
2022/05/10 00:52:55;;;;;;;2.92;2.10;;;20.60;53.50;;;;;;4954451;29;20063;-83
2022/05/10 00:55:21;;;;;;;3.47;2.30;;;20.50;53.50;;;;;;4938218;29;20430;-77
2022/05/10 00:58:02;;;;;;;3.28;2.30;;;20.50;53.50;;;;;;4954194;29;20032;-80
2022/05/10 01:00:29;;;;;;;2.67;2.15;;;20.50;53.60;;;;;;4953298;29;20115;-76
2022/05/10 01:03:15;;;;;;;3.53;2.58;;;20.50;53.60;;;;;;4953109;29;20543;-78
2022/05/10 01:06:03;;;;;;;3.90;2.38;;;20.40;53.60;;;;;;4954413;28;20038;-76
2022/05/10 01:08:52;;;;;;;3.42;2.20;;;20.40;53.70;;;;;;4953630;29;20484;-75
2022/05/10 01:11:39;;;;;;;2.88;2.30;;;20.30;53.70;;;;;;4953301;29;20126;-76
2022/05/10 01:14:35;;;;;;;3.05;2.47;;;20.30;53.80;;;;;;4954917;29;20070;-75
2022/05/10 01:17:02;;;;;;;2.85;2.20;;;20.30;53.90;;;;;;4953251;28;20055;-76
2022/05/10 01:19:28;;;;;;;3.25;2.53;;;20.20;53.70;;;;;;4940566;29;20027;-76
2022/05/10 01:22:05;;;;;;;3.67;2.83;;;20.20;53.90;;;;;;4940588;29;20127;-76
2022/05/10 01:24:43;;;;;;;2.45;2.20;;;20.20;54.00;;;;;;4957551;29;20090;-75
2022/05/10 01:27:36;;;;;;;3.50;2.42;;;20.10;53.90;;;;;;4956674;29;20439;-78
2022/05/10 01:30:09;;;;;;;2.78;2.10;;;20.10;54.00;;;;;;4940689;29;20062;-77
2022/05/10 01:36:01;;;;;;;3.35;2.35;;;20.00;54.10;;;;;;4956470;29;20043;-76
2022/05/10 01:38:39;;;;;;;3.50;2.40;;;20.00;54.10;;;;;;4956722;29;20062;-79
2022/05/10 01:41:28;;;;;;;4.35;2.55;;;20.00;54.20;;;;;;4956568;29;20039;-76
2022/05/10 01:44:06;;;;;;;3.85;2.67;;;19.90;54.30;;;;;;4940469;29;20031;-76
2022/05/10 01:46:33;;;;;;;3.15;2.38;;;19.90;54.30;;;;;;4956488;29;20099;-75
2022/05/10 01:49:17;;;;;;;3.85;2.60;;;19.80;54.20;;;;;;4957204;28;20035;-76
2022/05/10 01:51:55;;;;;;;4.47;2.92;;;19.80;54.40;;;;;;4955970;29;20035;-75
2022/05/10 01:54:41;;;;;;;4.28;2.58;;;19.80;54.40;;;;;;4956440;29;20039;-76
2022/05/10 01:57:13;;;;;;;4.55;2.95;;;19.70;54.50;;;;;;4945503;29;20051;-77
2022/05/10 01:59:47;;;;;;;4.28;3.08;;;19.70;54.50;;;;;;4957250;29;20033;-75
2022/05/10 02:02:15;;;;;;;6.30;3.30;;;19.70;54.50;;;;;;4956571;29;20035;-75
2022/05/10 02:04:44;;;;;;;3.90;2.65;;;19.70;54.60;;;;;;4956173;29;20038;-76
2022/05/10 02:07:19;;;;;;;3.97;2.85;;;19.60;54.60;;;;;;4955891;29;20504;-77
2022/05/10 02:10:04;;;;;;;3.92;2.90;;;19.60;54.70;;;;;;4955838;29;20027;-76
2022/05/10 02:12:44;;;;;;;3.80;2.60;;;19.60;54.80;;;;;;4955527;29;20038;-81
2022/05/10 02:15:29;;;;;;;3.42;2.83;;;19.50;54.70;;;;;;4956126;29;20042;-77
2022/05/10 02:18:07;;;;;;;4.25;2.83;;;19.50;54.70;;;;;;4939297;29;20047;-78
2022/05/10 02:20:54;;;;;;;4.15;2.92;;;19.50;54.80;;;;;;4955152;29;20051;-80
2022/05/10 02:23:30;;;;;;;4.05;3.08;;;19.40;54.90;;;;;;4939852;29;20539;-76
2022/05/10 02:26:15;;;;;;;4.32;3.05;;;19.40;54.90;;;;;;4955371;29;20031;-78
2022/05/10 02:28:52;;;;;;;4.45;3.30;;;19.40;55.00;;;;;;4954631;28;20075;-77
2022/05/10 02:34:27;;;;;;;4.57;2.92;;;19.30;54.90;;;;;;4956330;29;20034;-76
2022/05/10 02:36:53;;;;;;;3.88;3.00;;;19.30;54.90;;;;;;4938997;29;20039;-76
2022/05/10 02:39:20;;;;;;;5.00;3.42;;;19.30;55.00;;;;;;4939173;29;20031;-80
2022/05/10 02:41:46;;;;;;;4.60;3.60;;;19.20;55.00;;;;;;4956000;28;20031;-78
2022/05/10 02:44:12;;;;;;;4.47;3.30;;;19.20;55.10;;;;;;4955396;29;20046;-76
2022/05/10 02:46:38;;;;;;;4.43;3.45;;;19.20;55.10;;;;;;4956463;28;20027;-77
2022/05/10 02:49:03;;;;;;;4.88;3.25;;;19.20;55.10;;;;;;4923226;29;20034;-76
2022/05/10 02:51:29;;;;;;;4.70;3.30;;;19.20;55.20;;;;;;4954710;29;20077;-77
2022/05/10 02:53:55;;;;;;;4.95;3.70;;;19.10;55.20;;;;;;4954844;29;20031;-77
2022/05/10 02:56:24;;;;;;;5.50;3.60;;;19.10;55.20;;;;;;4955468;29;20492;-76
2022/05/10 02:59:15;;;;;;;5.55;3.67;;;19.10;55.30;;;;;;4955031;29;20035;-77
2022/05/10 03:01:55;;;;;;;4.90;3.33;;;19.10;55.40;;;;;;4954560;29;20035;-79
2022/05/10 03:04:21;;;;;;;4.88;3.38;;;19.00;55.30;;;;;;4955753;29;20102;-76
2022/05/10 03:06:47;;;;;;;4.85;3.60;;;19.00;55.30;;;;;;4955985;28;20456;-77
2022/05/10 03:09:14;;;;;;;4.28;3.45;;;19.00;55.40;;;;;;4955191;29;20122;-78
2022/05/10 03:11:40;;;;;;;5.40;3.67;;;19.00;55.40;;;;;;4954663;29;20487;-77
2022/05/10 03:14:09;;;;;;;5.30;4.07;;;18.90;55.40;;;;;;4954898;29;20031;-76
2022/05/10 03:16:35;;;;;;;5.53;4.10;;;18.90;55.40;;;;;;4939115;29;20039;-76
2022/05/10 03:19:05;;;;;;;5.00;3.85;;;18.90;55.40;;;;;;4938835;29;20492;-76
2022/05/10 03:21:31;;;;;;;5.40;3.97;;;18.90;55.50;;;;;;4954457;29;20023;-76
2022/05/10 03:23:58;;;;;;;5.22;4.03;;;18.90;55.60;;;;;;4954560;29;20038;-76
2022/05/10 03:26:27;;;;;;;5.53;4.18;;;18.80;55.60;;;;;;4906964;29;20031;-76
2022/05/10 03:28:54;;;;;;;4.97;3.80;;;18.80;55.60;;;;;;4955452;28;20031;-77
2022/05/10 03:31:22;;;;;;;5.57;4.03;;;18.80;55.70;;;;;;4954740;29;20051;-76
2022/05/10 03:36:38;;;;;;;4.78;3.90;;;18.70;55.70;;;;;;4954386;29;20060;-81
2022/05/10 03:39:05;;;;;;;6.07;4.05;;;18.70;55.70;;;;;;4953889;29;20036;-77
2022/05/10 03:41:31;;;;;;;5.65;4.00;;;18.70;55.80;;;;;;4953566;28;20043;-77
2022/05/10 03:43:57;;;;;;;5.15;4.13;;;18.70;55.90;;;;;;4954727;29;20059;-77
2022/05/10 03:46:25;;;;;;;5.40;4.20;;;18.60;55.80;;;;;;4938084;29;20457;-76
2022/05/10 03:48:51;;;;;;;4.95;3.90;;;18.60;55.90;;;;;;4953989;29;20055;-74
2022/05/10 03:51:17;;;;;;;5.65;4.07;;;18.60;55.90;;;;;;4937943;29;20042;-75
2022/05/10 03:53:43;;;;;;;5.03;3.90;;;18.60;55.90;;;;;;4955007;28;20034;-75
2022/05/10 03:56:10;;;;;;;5.72;4.13;;;18.60;56.00;;;;;;4937718;29;20121;-77
2022/05/10 03:58:36;;;;;;;5.75;4.45;;;18.60;56.00;;;;;;4937796;29;20102;-77
2022/05/10 04:01:06;;;;;;;5.32;4.53;;;18.50;55.90;;;;;;4937918;29;20036;-76
2022/05/10 04:03:32;;;;;;;5.30;4.25;;;18.50;55.90;;;;;;4953774;29;20147;-76
2022/05/10 04:05:57;;;;;;;5.28;3.85;;;18.50;55.90;;;;;;4937489;29;20043;-76
2022/05/10 04:08:25;;;;;;;5.05;4.07;;;18.50;56.00;;;;;;4938140;29;20469;-76
2022/05/10 04:10:50;;;;;;;5.70;4.60;;;18.40;56.00;;;;;;4921932;29;20120;-76
2022/05/10 04:13:17;;;;;;;5.68;4.65;;;18.40;56.00;;;;;;4938048;29;20044;-77
2022/05/10 04:15:42;;;;;;;5.75;4.18;;;18.40;56.10;;;;;;4937804;29;20037;-77
2022/05/10 04:18:10;;;;;;;5.40;4.05;;;18.40;56.20;;;;;;4937833;29;20476;-77
2022/05/10 04:20:35;;;;;;;6.60;4.90;;;18.40;56.20;;;;;;4953544;29;20035;-77
2022/05/10 04:23:03;;;;;;;6.00;4.88;;;18.40;56.20;;;;;;4953634;29;20032;-75
2022/05/10 04:25:29;;;;;;;5.15;3.83;;;18.40;56.20;;;;;;4954660;28;20024;-76
2022/05/10 04:27:56;;;;;;;5.75;4.35;;;18.30;56.30;;;;;;4954392;29;20035;-75
2022/05/10 04:30:22;;;;;;;5.82;4.00;;;18.30;56.20;;;;;;4937498;29;20087;-76
2022/05/10 04:32:49;;;;;;;4.90;4.18;;;18.30;56.20;;;;;;4953894;29;20042;-75
2022/05/10 04:35:15;;;;;;;6.30;4.57;;;18.30;56.30;;;;;;4937786;29;20023;-77
2022/05/10 04:37:44;;;;;;;5.72;4.53;;;18.20;56.40;;;;;;4954029;29;20050;-82
2022/05/10 04:42:56;;;;;;;5.63;4.32;;;18.20;56.40;;;;;;4956340;29;20038;-77
2022/05/10 04:45:22;;;;;;;4.95;4.13;;;18.20;56.40;;;;;;4939518;29;20027;-76
2022/05/10 04:47:47;;;;;;;5.47;4.18;;;18.20;56.50;;;;;;4923342;29;20337;-75
2022/05/10 04:50:13;;;;;;;6.10;4.68;;;18.20;56.50;;;;;;4939209;29;20031;-76
2022/05/10 04:52:42;;;;;;;6.45;4.72;;;18.20;56.60;;;;;;4958098;28;20464;-78
2022/05/10 04:55:09;;;;;;;6.22;4.30;;;18.10;56.50;;;;;;4943651;29;20047;-76
2022/05/10 04:57:37;;;;;;;6.07;4.68;;;18.10;56.60;;;;;;4943658;29;20054;-78
2022/05/10 05:00:06;;;;;;;5.93;4.47;;;18.10;56.60;;;;;;4959483;29;20031;-76
2022/05/10 05:02:32;;;;;;;6.15;4.65;;;18.10;56.60;;;;;;4959169;29;20046;-76
2022/05/10 05:04:59;;;;;;;8.10;4.78;;;18.10;56.60;;;;;;4943422;29;20035;-77
2022/05/10 05:07:25;;;;;;;6.47;4.78;;;18.10;56.60;;;;;;4926825;29;20058;-76
2022/05/10 05:12:26;;;;;;;5.57;4.55;;;18.10;56.60;;;;;;5820652;23;20063;-76
2022/05/10 05:14:52;;;;;;;5.50;4.35;;;18.10;56.60;;;;;;4948267;28;20046;-75
2022/05/10 05:17:20;;;;;;;5.63;4.15;;;18.10;56.60;;;;;;4921692;29;20514;-75
2022/05/10 05:19:46;;;;;;;6.28;4.95;;;18.10;56.60;;;;;;4921580;29;20063;-75
2022/05/10 05:22:13;;;;;;;6.05;4.88;;;18.10;56.60;;;;;;4920979;29;20118;-78
2022/05/10 05:24:38;;;;;;;6.57;5.32;;;18.10;56.60;;;;;;4921433;29;20064;-76
2022/05/10 05:27:04;;;;;;;5.95;4.90;;;18.10;56.60;;;;;;4921669;29;20499;-74
2022/05/10 05:29:31;;;;;;;5.95;4.72;;;18.10;56.70;;;;;;4937309;29;20040;-74
2022/05/10 05:31:57;;;;;;;6.07;5.00;;;18.10;56.70;;;;;;4921639;29;20043;-75
2022/05/10 05:34:23;;;;;;;6.07;4.90;;;18.10;56.70;;;;;;4921112;29;20087;-79
2022/05/10 05:37:32;;;;;;;6.03;4.63;;;18.10;56.70;;;;;;4921748;29;20460;-75
2022/05/10 05:39:35;;;;;;;6.65;4.80;;;18.10;56.70;;;;;;4923747;29;20480;-75
2022/05/10 05:42:00;;;;;;;5.57;4.88;;;18.10;56.70;;;;;;4921971;29;20035;-77
2022/05/10 05:44:26;;;;;;;5.97;4.80;;;18.10;57.40;;;;;;4906418;29;20372;-74
2022/05/10 05:46:52;;;;;;;6.90;5.15;;;18.10;56.80;;;;;;4938344;29;20043;-75
2022/05/10 05:49:18;;;;;;;6.55;4.93;;;18.10;56.80;;;;;;4921545;29;20119;-76
2022/05/10 05:51:44;;;;;;;6.00;5.05;;;18.10;56.90;;;;;;4905054;29;20543;-74
2022/05/10 05:54:10;;;;;;;5.95;4.95;;;18.10;56.80;;;;;;4921449;29;20039;-79
2022/05/10 05:56:36;;;;;;;5.88;4.97;;;18.10;56.90;;;;;;4937969;29;20111;-79
2022/05/10 05:59:02;;;;;;;6.10;4.90;;;18.10;56.80;;;;;;4905748;29;20126;-78
2022/05/10 06:01:28;;;;;;;6.25;5.05;;;18.10;56.90;;;;;;4936857;29;20027;-78
2022/05/10 06:03:56;;;;;;;5.85;4.78;;;18.20;56.90;;;;;;4920739;29;20039;-75
2022/05/10 06:06:22;;;;;;;7.45;5.72;;;18.10;56.90;;;;;;4936741;29;20095;-77
2022/05/10 06:08:48;;;;;;;6.43;5.25;;;18.20;57.00;;;;;;4937868;29;20040;-77
2022/05/10 06:11:14;;;;;;;6.53;5.45;;;18.20;57.00;;;;;;4921035;29;20028;-78
2022/05/10 06:13:40;;;;;;;6.00;5.40;;;18.20;57.00;;;;;;4936804;29;20060;-78
2022/05/10 06:16:07;;;;;;;6.53;5.10;;;18.20;57.00;;;;;;4905328;29;20053;-78
2022/05/10 06:18:33;;;;;;;6.30;5.53;;;18.20;57.10;;;;;;4921447;29;20412;-77
2022/05/10 06:20:59;;;;;;;6.18;5.03;;;18.20;57.10;;;;;;4937870;29;20047;-78
2022/05/10 06:23:25;;;;;;;7.20;5.55;;;18.20;57.10;;;;;;4936274;29;20044;-77
2022/05/10 06:25:51;;;;;;;6.68;5.10;;;18.30;57.10;;;;;;4936735;29;20035;-76
2022/05/10 06:28:19;;;;;;;6.20;5.07;;;18.30;57.10;;;;;;4936507;29;20062;-75
2022/05/10 06:30:46;;;;;;;6.25;5.10;;;18.30;57.20;;;;;;4936455;29;20468;-83
2022/05/10 06:33:12;;;;;;;6.22;5.25;;;18.30;57.20;;;;;;4920623;29;20074;-76
2022/05/10 06:35:39;;;;;;;6.40;5.10;;;18.30;57.20;;;;;;4937161;29;20613;-76
2022/05/10 06:41:03;;;;;;;;;;;18.40;57.40;;;;;;4928100;29;20040;-75
2022/05/10 06:43:30;;;;;;;6.15;4.22;;;18.40;57.20;;;;;;4936213;29;20013;-75
2022/05/10 06:46:16;;;;;;;6.22;4.93;;;18.40;57.20;;;;;;4921752;29;20055;-78
2022/05/10 06:48:46;;;;;;;6.05;5.00;;;18.40;57.50;;;;;;4920050;29;20032;-75
2022/05/10 06:51:14;;;;;;;6.85;5.85;;;18.40;57.50;;;;;;4935839;29;20468;-75
2022/05/10 06:53:40;;;;;;;6.45;5.55;;;18.40;57.50;;;;;;4951419;29;20083;-75
2022/05/10 06:56:07;;;;;;;7.43;6.07;;;18.50;57.60;;;;;;4935280;29;20035;-76
2022/05/10 06:58:33;;;;;;;7.45;6.30;;;18.50;57.70;;;;;;4937348;29;20488;-75
2022/05/10 07:00:59;;;;;;;8.43;6.22;;;18.50;57.80;;;;;;4935322;29;20032;-76
2022/05/10 07:03:28;;;;;;;8.10;6.78;;;18.60;57.90;;;;;;4951407;29;20031;-77
2022/05/10 07:05:55;;;;;;;9.02;7.03;;;18.60;58.00;;;;;;4935748;29;20023;-76
2022/05/10 07:08:21;;;;;;;7.85;6.28;;;18.60;58.10;;;;;;4919417;29;20044;-77
2022/05/10 07:10:47;;;;;;;8.27;6.40;;;18.70;58.20;;;;;;4936459;29;20027;-77
2022/05/10 07:13:18;;;;;;;8.50;6.57;;;18.70;58.30;;;;;;4935355;29;20087;-75
2022/05/10 07:15:44;;;;;;;8.90;5.95;;;18.70;58.50;;;;;;4950601;28;20486;-76
2022/05/10 07:18:11;;;;;;;7.03;6.22;;;18.80;58.60;;;;;;4935383;29;20043;-76
2022/05/10 07:20:37;;;;;;;7.45;6.65;;;18.80;58.80;;;;;;4935347;29;20047;-76
2022/05/10 07:23:03;;;;;;;7.90;6.63;;;18.90;58.90;;;;;;4935230;29;20023;-76
2022/05/10 07:25:29;;;;;;;8.77;7.05;;;18.90;59.00;;;;;;4936667;29;20042;-76
2022/05/10 07:27:56;;;;;;;8.32;6.88;;;18.90;59.10;;;;;;4919383;29;20035;-76
2022/05/10 07:30:24;;;;;;;7.63;6.47;;;19.00;59.20;;;;;;4934820;29;20031;-75
2022/05/10 07:32:53;;;;;;;7.80;6.07;;;19.00;59.30;;;;;;4935265;29;20030;-76
2022/05/10 07:38:07;;;;;;;7.60;6.45;;;19.10;59.50;;;;;;4935836;29;20063;-76
2022/05/10 07:40:32;;;;;;;8.95;7.10;;;19.20;59.60;;;;;;4919954;29;20031;-76
2022/05/10 07:42:59;;;;;;;8.93;6.45;;;19.20;59.70;;;;;;4951212;29;20035;-76
2022/05/10 07:45:25;;;;;;;7.60;6.80;;;19.30;59.80;;;;;;4934826;29;20452;-77
2022/05/10 07:47:52;;;;;;;8.00;6.85;;;19.30;60.00;;;;;;4919626;29;20054;-76
2022/05/10 07:50:21;;;;;;;7.60;6.70;;;19.40;60.00;;;;;;4919060;29;20503;-78
2022/05/10 07:52:47;;;;;;;7.93;6.90;;;19.40;60.10;;;;;;4935148;29;20039;-77
2022/05/10 07:55:13;;;;;;;9.07;7.00;;;19.50;60.20;;;;;;4887713;29;20032;-76
2022/05/10 07:57:40;;;;;;;8.27;6.80;;;19.60;60.30;;;;;;4935710;29;20110;-76
2022/05/10 08:00:08;;;;;;;7.60;6.05;;;19.60;60.30;;;;;;4918900;29;20424;-77
2022/05/10 08:02:42;;;;;;;7.50;5.97;;;19.70;60.30;;;;;;4919482;29;20031;-76
2022/05/10 08:05:09;;;;;;;8.00;6.32;;;19.80;60.30;;;;;;4935607;29;20032;-77
2022/05/10 08:07:35;;;;;;;8.23;6.32;;;19.80;60.30;;;;;;4919463;29;20039;-77
2022/05/10 08:10:01;;;;;;;8.05;6.45;;;19.90;60.30;;;;;;4903541;29;20368;-77
2022/05/10 08:12:27;;;;;;;7.53;6.63;;;20.00;60.40;;;;;;4934474;29;20039;-76
2022/05/10 08:14:53;;;;;;;8.55;6.63;;;20.00;60.40;;;;;;4934834;29;20086;-76
2022/05/10 08:17:19;;;;;;;6.93;6.22;;;20.10;60.40;;;;;;4918829;29;20492;-75
2022/05/10 08:19:45;;;;;;;9.02;6.57;;;20.20;60.50;;;;;;4935360;29;20469;-76
2022/05/10 08:22:11;;;;;;;7.43;6.53;;;20.30;60.50;;;;;;4935364;29;20055;-76
2022/05/10 08:24:36;;;;;;;7.93;6.35;;;20.40;60.50;;;;;;4934984;29;20457;-77
2022/05/10 08:27:04;;;;;;;7.38;6.13;;;20.50;60.50;;;;;;4919573;29;20050;-77
2022/05/10 08:29:30;;;;;;;7.63;6.38;;;20.50;60.50;;;;;;4906726;29;20039;-76
2022/05/10 08:31:56;;;;;;;7.22;5.97;;;20.60;60.60;;;;;;4954937;29;20043;-76
2022/05/10 08:34:21;;;;;;;7.15;5.78;;;20.60;60.60;;;;;;4940031;29;20032;-76
2022/05/10 08:36:47;;;;;;;6.57;5.90;;;20.70;60.50;;;;;;4922268;29;20162;-77
2022/05/10 08:39:14;;;;;;;8.38;5.78;;;20.80;61.20;;;;;;4939904;29;20086;-75
2022/05/10 08:41:58;;;;;;;6.85;5.75;;;20.90;60.60;;;;;;4939550;29;20047;-76
2022/05/10 08:44:31;;;;;;;6.47;5.63;;;20.90;60.70;;;;;;4939803;29;20111;-75
2022/05/10 08:47:06;;;;;;;6.80;4.97;;;21.00;60.60;;;;;;4939527;29;20031;-76
2022/05/10 08:49:36;;;;;;;6.30;4.90;;;21.10;60.60;;;;;;4953926;29;20063;-76
2022/05/10 08:52:06;;;;;;;5.78;5.07;;;21.10;60.60;;;;;;4954099;29;20036;-76
2022/05/10 08:54:34;;;;;;;6.40;4.85;;;21.20;60.60;;;;;;4907672;29;20142;-75
2022/05/10 08:57:11;;;;;;;6.43;5.13;;;21.20;60.50;;;;;;4938902;29;20035;-76
2022/05/10 09:00:03;;;;;;;6.32;5.00;;;21.30;60.50;;;;;;4937795;29;20115;-77
2022/05/10 09:02:52;;;;;;;6.03;5.13;;;21.40;60.40;;;;;;4937740;29;20061;-77
2022/05/10 09:05:51;;;;;;;6.15;4.85;;;21.40;60.00;;;;;;4937199;29;20043;-75
2022/05/10 09:08:19;;;;;;;6.53;4.57;;;21.50;60.10;;;;;;4917195;29;20052;-75
2022/05/10 09:10:57;;;;;;;6.18;4.75;;;21.60;59.80;;;;;;4938984;29;20121;-76
2022/05/10 09:13:23;;;;;;;5.28;4.47;;;21.60;59.80;;;;;;4953420;29;20099;-76
2022/05/10 09:15:54;;;;;;;6.47;4.68;;;21.60;59.50;;;;;;4938841;29;20066;-78
2022/05/10 09:18:24;;;;;;;5.47;4.30;;;21.70;59.60;;;;;;4954193;29;20118;-77
2022/05/10 09:21:11;;;;;;;5.95;4.93;;;21.70;59.50;;;;;;4938706;29;20111;-76
2022/05/10 09:23:58;;;;;;;5.85;4.00;;;21.80;59.60;;;;;;4938261;29;20031;-76
2022/05/10 09:26:31;;;;;;;6.70;4.68;;;21.80;59.50;;;;;;4937395;29;20039;-75
2022/05/10 09:29:08;;;;;;;4.93;4.03;;;21.90;59.40;;;;;;4921719;29;20035;-78
2022/05/10 09:37:34;;;;;;;7.00;3.80;;;22.10;59.30;;;;;;4937183;29;20126;-78
2022/05/10 09:40:08;;;;;;;4.18;3.53;;;22.10;59.30;;;;;;4937091;29;20487;-77
2022/05/10 09:42:37;;;;;;;4.67;3.53;;;22.20;59.20;;;;;;4922123;29;20114;-77
2022/05/10 09:45:10;;;;;;;4.95;3.88;;;22.20;59.20;;;;;;4937032;29;20457;-75
2022/05/10 09:47:38;;;;;;;5.47;3.50;;;22.30;59.20;;;;;;4937456;29;20032;-75
2022/05/10 09:50:17;;;;;;;4.30;3.67;;;22.40;59.20;;;;;;4938008;29;20028;-74
2022/05/10 09:52:43;;;;;;;4.32;3.25;;;22.40;59.30;;;;;;4936689;29;20035;-75
2022/05/10 09:55:26;;;;;;;5.15;3.22;;;22.50;60.00;;;;;;4936783;29;20028;-75
2022/05/10 09:57:57;;;;;;;3.75;3.00;;;22.60;59.50;;;;;;4952989;29;20038;-74
2022/05/10 10:00:42;;;;;;;3.35;2.95;;;22.60;59.30;;;;;;4937998;29;20079;-75
2022/05/10 10:03:08;;;;;;;4.00;2.95;;;22.80;59.30;;;;;;4938328;29;20034;-75
2022/05/10 10:05:36;;;;;;;3.50;2.75;;;22.80;59.10;;;;;;4936763;29;20024;-75
2022/05/10 10:08:02;;;;;;;4.35;2.78;;;22.90;59.20;;;;;;4937431;29;20028;-76
2022/05/10 10:10:34;;;;;;;4.43;2.90;;;23.00;59.40;;;;;;4936571;29;20053;-76
2022/05/10 10:13:32;;;;;;;4.07;2.90;;;23.10;59.50;;;;;;4938401;29;20040;-76
2022/05/10 10:15:58;;;;;;;3.47;3.00;;;23.20;59.40;;;;;;4938207;29;20042;-76
2022/05/10 10:18:45;;;;;;;3.35;2.70;;;23.30;59.10;;;;;;4937322;29;20023;-76
2022/05/10 10:21:24;;;;;;;4.30;2.95;;;23.40;59.10;;;;;;4937215;29;20039;-76
2022/05/10 10:23:57;;;;;;;3.65;2.80;;;23.60;58.90;;;;;;4953143;29;20039;-75
2022/05/10 10:26:31;;;;;;;3.60;2.70;;;23.60;59.00;;;;;;4936655;29;20140;-75
2022/05/10 10:29:19;;;;;;;3.13;2.58;;;23.70;59.00;;;;;;4952863;29;20086;-75
2022/05/10 10:31:59;;;;;;;3.65;2.88;;;23.80;58.80;;;;;;4920740;29;20035;-74
2022/05/10 10:34:43;;;;;;;3.17;2.33;;;23.90;58.60;;;;;;4936943;29;20444;-75
2022/05/10 10:37:32;;;;;;;3.38;2.63;;;24.00;58.50;;;;;;4920864;29;20043;-75
2022/05/10 10:40:10;;;;;;;3.83;2.70;;;24.10;58.40;;;;;;4936630;29;20042;-75
2022/05/10 10:42:48;;;;;;;3.65;2.70;;;24.20;58.50;;;;;;4951815;29;20035;-75
2022/05/10 10:45:16;;;;;;;2.83;2.47;;;24.30;58.50;;;;;;4936149;29;20036;-75
2022/05/10 10:47:48;;;;;;;3.40;2.42;;;24.40;58.30;;;;;;4937394;29;20035;-77
2022/05/10 10:50:26;;;;;;;4.00;2.55;;;24.50;58.20;;;;;;4935067;29;20103;-76
2022/05/10 10:52:54;;;;;;;3.15;2.30;;;24.60;58.10;;;;;;4937148;29;20117;-75
2022/05/10 10:55:23;;;;;;;3.67;2.55;;;24.70;58.10;;;;;;4936145;29;20028;-75
2022/05/10 10:58:04;;;;;;;3.47;2.45;;;24.80;57.90;;;;;;4935832;29;20158;-74
2022/05/10 11:00:54;;;;;;;2.92;2.40;;;24.90;57.70;;;;;;4920241;29;20058;-80
2022/05/10 11:04:01;;;;;;;3.58;2.30;;;25.00;57.60;;;;;;4937453;29;20046;-76
2022/05/10 11:06:28;;;;;;;3.40;2.35;;;25.10;57.50;;;;;;4880955;29;20032;-76
2022/05/10 11:09:20;;;;;;;3.22;2.50;;;25.20;57.30;;;;;;4926712;29;20039;-76
2022/05/10 11:12:15;;;;;;;3.22;2.45;;;25.20;57.30;;;;;;4937266;29;20031;-77
2022/05/10 11:15:01;;;;;;;3.55;2.22;;;25.30;57.20;;;;;;4919650;29;20052;-76
2022/05/10 11:17:53;;;;;;;3.33;2.40;;;25.40;57.20;;;;;;4935274;29;20506;-77
2022/05/10 11:20:56;;;;;;;2.97;2.50;;;25.50;57.20;;;;;;4935903;29;20456;-77
2022/05/10 11:23:48;;;;;;;2.90;2.25;;;25.60;57.20;;;;;;4925985;29;20043;-77
2022/05/10 11:26:33;;;;;;;3.10;2.42;;;25.60;57.10;;;;;;4893543;29;20126;-76
2022/05/10 11:29:23;;;;;;;2.72;2.03;;;25.70;57.00;;;;;;4935803;29;20039;-78
2022/05/10 11:32:02;;;;;;;2.67;2.25;;;25.70;57.00;;;;;;4936533;29;20110;-78
2022/05/10 11:34:57;;;;;;;2.70;2.38;;;25.80;56.80;;;;;;4920394;29;20130;-78
2022/05/10 11:37:58;;;;;;;3.33;2.58;;;25.90;56.80;;;;;;4920074;29;20035;-76
2022/05/10 11:40:36;;;;;;;2.33;2.10;;;25.90;56.80;;;;;;4932116;29;20144;-77
2022/05/10 11:43:12;;;;;;;4.95;2.63;;;26.00;56.80;;;;;;4935880;29;20031;-78
2022/05/10 11:45:52;;;;;;;3.30;2.55;;;26.00;56.60;;;;;;4935806;29;20087;-78
2022/05/10 11:48:50;;;;;;;3.85;2.63;;;26.10;56.70;;;;;;4937107;29;20523;-78
2022/05/10 11:51:47;;;;;;;2.85;2.15;;;26.10;56.70;;;;;;4935632;29;20087;-76
2022/05/10 11:54:46;;;;;;;2.85;2.35;;;26.10;56.60;;;;;;4935699;29;20036;-76
2022/05/10 11:57:15;;;;;;;4.53;2.53;;;26.20;56.50;;;;;;4885448;29;20040;-76
2022/05/10 11:59:42;;;;;;;3.65;2.33;;;26.30;56.50;;;;;;4951335;29;20032;-75
2022/05/10 12:02:30;;;;;;;2.97;2.20;;;26.30;56.50;;;;;;4936358;29;20020;-75
2022/05/10 12:05:12;;;;;;;2.65;2.20;;;26.30;56.50;;;;;;4936108;29;20356;-77
2022/05/10 12:07:52;;;;;;;2.63;2.30;;;26.40;56.50;;;;;;4935637;29;20039;-79
2022/05/10 12:10:36;;;;;;;3.30;2.35;;;26.50;56.40;;;;;;4919080;29;20122;-77
2022/05/10 12:13:05;;;;;;;2.53;2.15;;;26.50;56.30;;;;;;4935522;29;20036;-76
2022/05/10 12:21:23;;;;;;;2.03;1.83;;;26.60;56.10;;;;;;4937762;29;20040;-77
2022/05/10 12:24:06;;;;;;;3.13;2.20;;;26.60;56.10;;;;;;4936069;29;20035;-76
2022/05/10 12:26:37;;;;;;;3.10;2.30;;;26.70;56.20;;;;;;4936564;29;20227;-77
2022/05/10 12:29:05;;;;;;;3.10;2.47;;;26.70;56.10;;;;;;4919113;29;20095;-78
2022/05/10 12:31:31;;;;;;;3.63;2.40;;;26.70;56.00;;;;;;4935599;29;20460;-79
2022/05/10 12:34:08;;;;;;;3.03;2.10;;;26.80;56.00;;;;;;4934615;29;20039;-78
2022/05/10 12:36:39;;;;;;;3.00;2.30;;;26.80;56.00;;;;;;4934649;29;20102;-77
2022/05/10 12:39:31;;;;;;;2.90;2.33;;;26.90;56.00;;;;;;4950578;29;20024;-76
2022/05/10 12:42:47;;;;;;;2.85;2.22;;;26.90;56.10;;;;;;4931997;29;20098;-76
2022/05/10 12:45:40;;;;;;;3.03;2.30;;;26.90;56.00;;;;;;4905767;29;20095;-77
2022/05/10 12:48:29;;;;;;;2.58;2.20;;;27.00;55.90;;;;;;4934750;29;20034;-78
2022/05/10 12:51:15;;;;;;;3.45;2.10;;;27.00;56.00;;;;;;4933917;29;20038;-76
2022/05/10 12:53:52;;;;;;;3.05;2.20;;;27.10;56.00;;;;;;4918197;29;20480;-76
2022/05/10 12:56:23;;;;;;;2.50;2.17;;;27.10;55.80;;;;;;4934581;29;20046;-74
2022/05/10 12:58:55;;;;;;;3.45;2.67;;;27.10;55.70;;;;;;4935623;29;20106;-77
2022/05/10 13:01:25;;;;;;;2.10;1.90;;;27.20;55.70;;;;;;4935862;29;20107;-76
2022/05/10 13:03:59;;;;;;;2.88;2.22;;;27.20;55.50;;;;;;4934426;29;20480;-77
2022/05/10 13:06:50;;;;;;;2.60;2.20;;;27.20;55.40;;;;;;4934898;29;20036;-76
2022/05/10 13:09:28;;;;;;;2.83;2.10;;;27.20;55.30;;;;;;4936069;29;20501;-76
2022/05/10 13:12:15;;;;;;;3.10;2.33;;;27.30;55.30;;;;;;4918908;29;20031;-76
2022/05/10 13:14:52;;;;;;;5.20;2.30;;;27.30;55.40;;;;;;4937172;29;20142;-75
2022/05/10 13:17:29;;;;;;;3.13;2.45;;;27.30;55.20;;;;;;4953943;29;20042;-75
2022/05/10 13:19:57;;;;;;;2.50;2.00;;;27.40;55.30;;;;;;4938530;29;20036;-76
2022/05/10 13:22:25;;;;;;;3.22;2.38;;;27.40;55.80;;;;;;4938942;29;20155;-76
2022/05/10 13:24:55;;;;;;;2.75;2.20;;;27.40;55.10;;;;;;4921744;29;20035;-76
2022/05/10 13:27:31;;;;;;;3.45;2.45;;;27.40;55.10;;;;;;4937907;29;20024;-76
2022/05/10 13:30:08;;;;;;;3.03;1.98;;;27.50;55.10;;;;;;4939126;29;20034;-77
2022/05/10 13:32:45;;;;;;;5.30;2.35;;;27.50;55.10;;;;;;4937509;29;20532;-77
2022/05/10 13:35:21;;;;;;;3.13;2.40;;;27.50;55.00;;;;;;4939318;29;20082;-76
2022/05/10 13:37:58;;;;;;;2.88;2.00;;;27.50;54.90;;;;;;4937198;29;20032;-75
2022/05/10 13:40:41;;;;;;;2.80;2.30;;;27.50;54.80;;;;;;4953608;29;20365;-76
2022/05/10 13:43:12;;;;;;;4.55;2.53;;;27.50;54.70;;;;;;4939531;29;20513;-76
2022/05/10 13:45:40;;;;;;;2.50;2.30;;;27.60;54.70;;;;;;4937565;29;20122;-77
2022/05/10 13:48:12;;;;;;;2.63;2.00;;;27.60;54.60;;;;;;4937407;29;20412;-78
2022/05/10 13:50:40;;;;;;;2.58;2.28;;;27.60;54.60;;;;;;4937233;29;20035;-77